Tionesta, Pennsylvania
Current Conditions -  °F | °C
As of 3:15 AM on Friday 24 Oct 2014 (Local Time) from KFKL Reporting Station
Overcast Overcast  
Wind Chill: 41°   Ceiling: 900
Heat Index: 45°   Visibility: 3mi
Dew Point: 39°   Wind: 6mph
Humidity: 81%   Direction: 270°W
Pressure: 30.06"   Gusts: NA
Location:  41.5°N, 79.46°W
Report Text: KFKL 240715Z 27005KT 3SM SCT002 OVC009 07/04 A3006 RMK AO1
Loading
Personal Weather Stations






























Interactive Weather Map
Tropical Storm Tracking
New forecast layout! Learn more

10-Day Weather Forecast

Advertisements
Track Severe Weather on mobile